Aviation Digital Data Service (ADDS)

Output produced by TAFs form (0358 UTC 01 November 2014)
found at http://aviationweather.gov/adds/tafs/
 
KCNM 010206Z 0102/0124 14008KT P6SM SCT060 SCT250 
     FM010900 15007KT P6SM BKN060 OVC200